Avalon, Mississippi
Current Conditions -  °F | °C
As of 5:53 PM on Wednesday 28 Jan 2015 (Local Time) from KGWO Reporting Station
Clear Clear  
Wind Chill: 14°   Ceiling: Unl
Heat Index: 14°   Visibility: 10mi
Dew Point:   Wind: 7mph
Humidity: 44%   Direction: 130°SE
Pressure: 30.14"   Gusts: NA
Location:  33.65°N, 90.09°W
Report Text: KGWO 282353Z AUTO 13006KT 10SM CLR 14/02 A3014 RMK AO2 SLP207 T01440022 10189 20139 56015
Loading
Personal Weather Stations






























Interactive Weather Map New forecast layout! Learn more

10-Day Weather Forecast

Advertisements
Track Severe Weather on mobile